sensor_id;sensor_type;location;lat;lon;timestamp;P1;durP1;ratioP1;P2;durP2;ratioP2
55031;SDS011;40928;51.076;7.950;2023-03-13T00:01:13;23.15;;;2.65;;
55031;SDS011;40928;51.076;7.950;2023-03-13T00:03:49;12.20;;;2.40;;
55031;SDS011;40928;51.076;7.950;2023-03-13T00:06:15;14.60;;;2.63;;
55031;SDS011;40928;51.076;7.950;2023-03-13T00:08:42;18.80;;;2.10;;
55031;SDS011;40928;51.076;7.950;2023-03-13T00:11:09;19.02;;;2.60;;
55031;SDS011;40928;51.076;7.950;2023-03-13T00:13:36;17.20;;;3.13;;
55031;SDS011;40928;51.076;7.950;2023-03-13T00:16:03;20.88;;;2.55;;
55031;SDS011;40928;51.076;7.950;2023-03-13T00:18:30;11.48;;;1.83;;
55031;SDS011;40928;51.076;7.950;2023-03-13T00:23:26;12.50;;;2.10;;
55031;SDS011;40928;51.076;7.950;2023-03-13T00:25:55;20.50;;;2.60;;
55031;SDS011;40928;51.076;7.950;2023-03-13T00:28:22;14.80;;;1.95;;
55031;SDS011;40928;51.076;7.950;2023-03-13T00:30:48;17.58;;;2.65;;
55031;SDS011;40928;51.076;7.950;2023-03-13T00:33:13;12.80;;;1.83;;
55031;SDS011;40928;51.076;7.950;2023-03-13T00:35:39;17.05;;;1.80;;
55031;SDS011;40928;51.076;7.950;2023-03-13T00:38:05;11.45;;;2.25;;
55031;SDS011;40928;51.076;7.950;2023-03-13T00:40:30;17.88;;;2.88;;
55031;SDS011;40928;51.076;7.950;2023-03-13T00:42:56;21.15;;;2.78;;
55031;SDS011;40928;51.076;7.950;2023-03-13T00:45:21;21.30;;;2.35;;
55031;SDS011;40928;51.076;7.950;2023-03-13T00:47:47;16.63;;;3.75;;
55031;SDS011;40928;51.076;7.950;2023-03-13T00:50:14;17.23;;;2.13;;
55031;SDS011;40928;51.076;7.950;2023-03-13T00:52:40;25.33;;;3.28;;
55031;SDS011;40928;51.076;7.950;2023-03-13T00:55:06;13.23;;;2.22;;
55031;SDS011;40928;51.076;7.950;2023-03-13T00:57:32;11.43;;;1.77;;
55031;SDS011;40928;51.076;7.950;2023-03-13T01:00:02;13.95;;;2.53;;
55031;SDS011;40928;51.076;7.950;2023-03-13T01:02:30;12.05;;;2.28;;
55031;SDS011;40928;51.076;7.950;2023-03-13T01:04:56;18.05;;;2.67;;
55031;SDS011;40928;51.076;7.950;2023-03-13T01:07:22;20.80;;;2.10;;
55031;SDS011;40928;51.076;7.950;2023-03-13T01:09:48;17.25;;;2.75;;
55031;SDS011;40928;51.076;7.950;2023-03-13T01:12:13;19.85;;;2.38;;
55031;SDS011;40928;51.076;7.950;2023-03-13T01:14:39;24.55;;;2.63;;
55031;SDS011;40928;51.076;7.950;2023-03-13T01:17:07;27.60;;;2.40;;
55031;SDS011;40928;51.076;7.950;2023-03-13T01:19:33;11.10;;;2.00;;
55031;SDS011;40928;51.076;7.950;2023-03-13T01:21:58;18.05;;;2.42;;
55031;SDS011;40928;51.076;7.950;2023-03-13T01:24:24;25.75;;;2.85;;
55031;SDS011;40928;51.076;7.950;2023-03-13T01:26:49;11.43;;;2.65;;
55031;SDS011;40928;51.076;7.950;2023-03-13T01:29:15;21.52;;;2.55;;
55031;SDS011;40928;51.076;7.950;2023-03-13T01:31:40;15.43;;;2.40;;
55031;SDS011;40928;51.076;7.950;2023-03-13T01:34:06;16.15;;;2.35;;
55031;SDS011;40928;51.076;7.950;2023-03-13T01:36:34;17.13;;;2.28;;
55031;SDS011;40928;51.076;7.950;2023-03-13T01:39:01;17.33;;;2.65;;
55031;SDS011;40928;51.076;7.950;2023-03-13T01:41:28;10.30;;;1.98;;
55031;SDS011;40928;51.076;7.950;2023-03-13T01:43:54;17.65;;;3.30;;
55031;SDS011;40928;51.076;7.950;2023-03-13T01:51:54;14.77;;;2.58;;
55031;SDS011;40928;51.076;7.950;2023-03-13T02:00:07;16.55;;;2.10;;
55031;SDS011;40928;51.076;7.950;2023-03-13T02:02:39;16.23;;;2.13;;
55031;SDS011;40928;51.076;7.950;2023-03-13T02:05:07;13.45;;;2.28;;
55031;SDS011;40928;51.076;7.950;2023-03-13T02:07:35;19.08;;;3.70;;
55031;SDS011;40928;51.076;7.950;2023-03-13T02:10:04;21.73;;;2.72;;
55031;SDS011;40928;51.076;7.950;2023-03-13T02:12:31;18.70;;;2.80;;
55031;SDS011;40928;51.076;7.950;2023-03-13T02:15:07;13.27;;;1.98;;
55031;SDS011;40928;51.076;7.950;2023-03-13T02:17:36;12.77;;;2.05;;
55031;SDS011;40928;51.076;7.950;2023-03-13T02:20:04;16.98;;;2.75;;
55031;SDS011;40928;51.076;7.950;2023-03-13T02:30:50;16.20;;;2.30;;
55031;SDS011;40928;51.076;7.950;2023-03-13T02:33:17;12.60;;;2.67;;
55031;SDS011;40928;51.076;7.950;2023-03-13T02:35:44;17.35;;;2.28;;
55031;SDS011;40928;51.076;7.950;2023-03-13T02:38:16;13.05;;;2.10;;
55031;SDS011;40928;51.076;7.950;2023-03-13T02:40:47;14.35;;;2.38;;
55031;SDS011;40928;51.076;7.950;2023-03-13T02:46:15;10.00;;;1.90;;
55031;SDS011;40928;51.076;7.950;2023-03-13T02:48:47;8.35;;;1.77;;
55031;SDS011;40928;51.076;7.950;2023-03-13T02:51:17;13.02;;;2.28;;
55031;SDS011;40928;51.076;7.950;2023-03-13T02:53:43;10.55;;;1.90;;
55031;SDS011;40928;51.076;7.950;2023-03-13T02:56:11;12.63;;;1.85;;
55031;SDS011;40928;51.076;7.950;2023-03-13T02:58:40;7.78;;;1.27;;
55031;SDS011;40928;51.076;7.950;2023-03-13T03:01:07;6.25;;;1.33;;
55031;SDS011;40928;51.076;7.950;2023-03-13T03:03:35;14.98;;;1.70;;
55031;SDS011;40928;51.076;7.950;2023-03-13T03:06:03;8.73;;;1.73;;
55031;SDS011;40928;51.076;7.950;2023-03-13T03:08:30;10.10;;;2.22;;
55031;SDS011;40928;51.076;7.950;2023-03-13T03:10:56;12.07;;;2.05;;
55031;SDS011;40928;51.076;7.950;2023-03-13T03:13:22;6.90;;;1.60;;
55031;SDS011;40928;51.076;7.950;2023-03-13T03:15:48;10.80;;;1.55;;
55031;SDS011;40928;51.076;7.950;2023-03-13T03:18:13;13.68;;;2.25;;
55031;SDS011;40928;51.076;7.950;2023-03-13T03:20:39;6.45;;;1.45;;
55031;SDS011;40928;51.076;7.950;2023-03-13T03:23:05;7.22;;;1.63;;
55031;SDS011;40928;51.076;7.950;2023-03-13T03:29:18;8.82;;;1.50;;
55031;SDS011;40928;51.076;7.950;2023-03-13T03:31:47;8.40;;;1.80;;
55031;SDS011;40928;51.076;7.950;2023-03-13T03:34:13;8.40;;;1.80;;
55031;SDS011;40928;51.076;7.950;2023-03-13T03:36:39;8.02;;;1.52;;
55031;SDS011;40928;51.076;7.950;2023-03-13T03:39:04;6.78;;;1.20;;
55031;SDS011;40928;51.076;7.950;2023-03-13T03:41:30;8.13;;;1.30;;
55031;SDS011;40928;51.076;7.950;2023-03-13T03:43:56;7.80;;;1.15;;
55031;SDS011;40928;51.076;7.950;2023-03-13T03:46:26;10.05;;;1.58;;
55031;SDS011;40928;51.076;7.950;2023-03-13T03:48:53;9.60;;;1.42;;
55031;SDS011;40928;51.076;7.950;2023-03-13T03:51:20;9.18;;;1.35;;
55031;SDS011;40928;51.076;7.950;2023-03-13T03:53:46;4.82;;;0.98;;
55031;SDS011;40928;51.076;7.950;2023-03-13T03:56:12;6.00;;;1.10;;
55031;SDS011;40928;51.076;7.950;2023-03-13T03:58:43;3.42;;;0.98;;
55031;SDS011;40928;51.076;7.950;2023-03-13T04:01:21;7.32;;;1.10;;
55031;SDS011;40928;51.076;7.950;2023-03-13T04:03:49;5.55;;;0.80;;
55031;SDS011;40928;51.076;7.950;2023-03-13T04:06:15;8.68;;;1.33;;
55031;SDS011;40928;51.076;7.950;2023-03-13T04:08:41;6.15;;;0.93;;
55031;SDS011;40928;51.076;7.950;2023-03-13T04:11:09;3.55;;;0.60;;
55031;SDS011;40928;51.076;7.950;2023-03-13T04:13:38;4.20;;;1.10;;
55031;SDS011;40928;51.076;7.950;2023-03-13T04:16:07;6.57;;;1.23;;
55031;SDS011;40928;51.076;7.950;2023-03-13T04:18:34;5.03;;;1.10;;
55031;SDS011;40928;51.076;7.950;2023-03-13T04:21:03;3.47;;;0.90;;
55031;SDS011;40928;51.076;7.950;2023-03-13T04:23:36;6.95;;;0.93;;
55031;SDS011;40928;51.076;7.950;2023-03-13T04:26:02;3.63;;;0.95;;
55031;SDS011;40928;51.076;7.950;2023-03-13T04:28:27;8.88;;;1.67;;
55031;SDS011;40928;51.076;7.950;2023-03-13T04:30:53;7.97;;;1.00;;
55031;SDS011;40928;51.076;7.950;2023-03-13T04:33:45;7.75;;;1.15;;
55031;SDS011;40928;51.076;7.950;2023-03-13T04:36:25;6.50;;;1.40;;
55031;SDS011;40928;51.076;7.950;2023-03-13T04:39:06;3.72;;;1.15;;
55031;SDS011;40928;51.076;7.950;2023-03-13T04:42:03;8.10;;;1.67;;
55031;SDS011;40928;51.076;7.950;2023-03-13T04:45:09;5.45;;;0.93;;
55031;SDS011;40928;51.076;7.950;2023-03-13T04:47:55;5.40;;;1.27;;
55031;SDS011;40928;51.076;7.950;2023-03-13T04:50:41;1.70;;;0.85;;
55031;SDS011;40928;51.076;7.950;2023-03-13T04:53:45;2.47;;;1.08;;
55031;SDS011;40928;51.076;7.950;2023-03-13T04:56:23;2.30;;;0.98;;
55031;SDS011;40928;51.076;7.950;2023-03-13T04:59:10;3.20;;;0.70;;
55031;SDS011;40928;51.076;7.950;2023-03-13T05:04:38;5.93;;;1.65;;
55031;SDS011;40928;51.076;7.950;2023-03-13T05:07:16;6.93;;;1.30;;
55031;SDS011;40928;51.076;7.950;2023-03-13T05:10:00;6.00;;;0.98;;
55031;SDS011;40928;51.076;7.950;2023-03-13T05:13:03;1.80;;;0.88;;
55031;SDS011;40928;51.076;7.950;2023-03-13T05:15:48;3.90;;;1.40;;
55031;SDS011;40928;51.076;7.950;2023-03-13T05:18:32;0.90;;;0.63;;
55031;SDS011;40928;51.076;7.950;2023-03-13T05:21:17;4.05;;;0.80;;
55031;SDS011;40928;51.076;7.950;2023-03-13T05:24:13;2.42;;;1.00;;
55031;SDS011;40928;51.076;7.950;2023-03-13T05:26:55;4.40;;;1.08;;
55031;SDS011;40928;51.076;7.950;2023-03-13T05:29:40;2.33;;;0.90;;
55031;SDS011;40928;51.076;7.950;2023-03-13T05:32:26;4.10;;;1.17;;
55031;SDS011;40928;51.076;7.950;2023-03-13T05:35:11;1.13;;;0.40;;
55031;SDS011;40928;51.076;7.950;2023-03-13T05:37:59;1.90;;;0.73;;
55031;SDS011;40928;51.076;7.950;2023-03-13T05:40:36;3.25;;;0.63;;
55031;SDS011;40928;51.076;7.950;2023-03-13T05:43:08;3.40;;;0.98;;
55031;SDS011;40928;51.076;7.950;2023-03-13T05:45:52;3.15;;;0.85;;
55031;SDS011;40928;51.076;7.950;2023-03-13T05:48:36;3.05;;;0.80;;
55031;SDS011;40928;51.076;7.950;2023-03-13T05:51:15;3.60;;;0.50;;
55031;SDS011;40928;51.076;7.950;2023-03-13T05:54:03;2.60;;;0.80;;
55031;SDS011;40928;51.076;7.950;2023-03-13T05:56:49;4.43;;;0.65;;
55031;SDS011;40928;51.076;7.950;2023-03-13T05:59:34;1.38;;;0.63;;
55031;SDS011;40928;51.076;7.950;2023-03-13T06:02:38;3.63;;;0.90;;
55031;SDS011;40928;51.076;7.950;2023-03-13T06:05:05;0.95;;;0.60;;
55031;SDS011;40928;51.076;7.950;2023-03-13T06:07:31;2.03;;;0.45;;
55031;SDS011;40928;51.076;7.950;2023-03-13T06:09:57;1.67;;;0.60;;
55031;SDS011;40928;51.076;7.950;2023-03-13T06:12:22;2.47;;;0.50;;
55031;SDS011;40928;51.076;7.950;2023-03-13T06:14:48;3.03;;;0.85;;
55031;SDS011;40928;51.076;7.950;2023-03-13T06:17:30;2.67;;;0.60;;
55031;SDS011;40928;51.076;7.950;2023-03-13T06:19:56;2.15;;;0.43;;
55031;SDS011;40928;51.076;7.950;2023-03-13T06:22:21;4.07;;;0.50;;
55031;SDS011;40928;51.076;7.950;2023-03-13T06:24:47;1.25;;;0.30;;
55031;SDS011;40928;51.076;7.950;2023-03-13T06:27:14;2.58;;;0.80;;
55031;SDS011;40928;51.076;7.950;2023-03-13T06:29:39;2.28;;;0.70;;
55031;SDS011;40928;51.076;7.950;2023-03-13T06:32:05;2.17;;;0.40;;
55031;SDS011;40928;51.076;7.950;2023-03-13T06:34:31;1.00;;;0.40;;
55031;SDS011;40928;51.076;7.950;2023-03-13T06:36:56;1.63;;;0.50;;
55031;SDS011;40928;51.076;7.950;2023-03-13T06:39:22;0.77;;;0.40;;
55031;SDS011;40928;51.076;7.950;2023-03-13T06:41:48;0.30;;;0.30;;
55031;SDS011;40928;51.076;7.950;2023-03-13T06:44:14;3.88;;;0.60;;
55031;SDS011;40928;51.076;7.950;2023-03-13T06:46:39;2.22;;;0.73;;
55031;SDS011;40928;51.076;7.950;2023-03-13T06:49:05;0.60;;;0.40;;
55031;SDS011;40928;51.076;7.950;2023-03-13T06:51:30;1.70;;;0.80;;
55031;SDS011;40928;51.076;7.950;2023-03-13T06:53:56;2.35;;;0.50;;
55031;SDS011;40928;51.076;7.950;2023-03-13T06:56:22;1.95;;;0.57;;
55031;SDS011;40928;51.076;7.950;2023-03-13T06:58:48;1.95;;;0.50;;
55031;SDS011;40928;51.076;7.950;2023-03-13T07:01:14;0.52;;;0.30;;
55031;SDS011;40928;51.076;7.950;2023-03-13T07:03:41;0.50;;;0.40;;
55031;SDS011;40928;51.076;7.950;2023-03-13T07:06:07;0.80;;;0.35;;
55031;SDS011;40928;51.076;7.950;2023-03-13T07:08:34;1.73;;;0.40;;
55031;SDS011;40928;51.076;7.950;2023-03-13T07:11:01;2.45;;;0.50;;
55031;SDS011;40928;51.076;7.950;2023-03-13T07:13:29;0.70;;;0.40;;
55031;SDS011;40928;51.076;7.950;2023-03-13T07:15:55;0.30;;;0.30;;
55031;SDS011;40928;51.076;7.950;2023-03-13T07:18:24;0.82;;;0.30;;
55031;SDS011;40928;51.076;7.950;2023-03-13T07:20:53;0.55;;;0.40;;
55031;SDS011;40928;51.076;7.950;2023-03-13T07:23:21;0.88;;;0.40;;
55031;SDS011;40928;51.076;7.950;2023-03-13T07:26:03;1.05;;;0.40;;
55031;SDS011;40928;51.076;7.950;2023-03-13T07:28:31;2.33;;;0.68;;
55031;SDS011;40928;51.076;7.950;2023-03-13T07:33:54;0.50;;;0.40;;
55031;SDS011;40928;51.076;7.950;2023-03-13T07:36:20;3.33;;;1.65;;
55031;SDS011;40928;51.076;7.950;2023-03-13T07:38:47;1.55;;;0.70;;
55031;SDS011;40928;51.076;7.950;2023-03-13T07:41:13;0.80;;;0.40;;
55031;SDS011;40928;51.076;7.950;2023-03-13T07:43:39;1.50;;;0.63;;
55031;SDS011;40928;51.076;7.950;2023-03-13T07:46:05;0.90;;;0.47;;
55031;SDS011;40928;51.076;7.950;2023-03-13T07:48:33;1.00;;;0.50;;
55031;SDS011;40928;51.076;7.950;2023-03-13T07:51:01;5.30;;;0.73;;
55031;SDS011;40928;51.076;7.950;2023-03-13T07:53:27;1.02;;;0.60;;
55031;SDS011;40928;51.076;7.950;2023-03-13T07:56:03;1.40;;;0.75;;
55031;SDS011;40928;51.076;7.950;2023-03-13T07:58:32;3.45;;;0.60;;
55031;SDS011;40928;51.076;7.950;2023-03-13T08:00:59;1.58;;;0.75;;
55031;SDS011;40928;51.076;7.950;2023-03-13T08:03:26;1.38;;;0.60;;
55031;SDS011;40928;51.076;7.950;2023-03-13T08:05:59;2.33;;;1.17;;
55031;SDS011;40928;51.076;7.950;2023-03-13T08:08:26;2.10;;;1.10;;
55031;SDS011;40928;51.076;7.950;2023-03-13T08:10:52;1.77;;;0.85;;
55031;SDS011;40928;51.076;7.950;2023-03-13T08:13:18;2.58;;;1.20;;
55031;SDS011;40928;51.076;7.950;2023-03-13T08:15:43;6.60;;;1.15;;
55031;SDS011;40928;51.076;7.950;2023-03-13T08:18:09;4.05;;;1.13;;
55031;SDS011;40928;51.076;7.950;2023-03-13T08:20:34;4.53;;;1.00;;
55031;SDS011;40928;51.076;7.950;2023-03-13T08:23:00;2.17;;;1.20;;
55031;SDS011;40928;51.076;7.950;2023-03-13T08:25:25;2.20;;;1.30;;
55031;SDS011;40928;51.076;7.950;2023-03-13T08:27:51;1.88;;;1.10;;
55031;SDS011;40928;51.076;7.950;2023-03-13T08:30:16;3.03;;;1.20;;
55031;SDS011;40928;51.076;7.950;2023-03-13T08:32:42;1.83;;;1.02;;
55031;SDS011;40928;51.076;7.950;2023-03-13T08:35:08;3.92;;;1.23;;
55031;SDS011;40928;51.076;7.950;2023-03-13T08:37:33;3.17;;;1.08;;
55031;SDS011;40928;51.076;7.950;2023-03-13T08:39:59;4.22;;;1.25;;
55031;SDS011;40928;51.076;7.950;2023-03-13T08:42:24;4.75;;;1.33;;
55031;SDS011;40928;51.076;7.950;2023-03-13T08:44:50;6.13;;;1.10;;
55031;SDS011;40928;51.076;7.950;2023-03-13T08:47:15;2.40;;;1.15;;
55031;SDS011;40928;51.076;7.950;2023-03-13T08:49:42;3.47;;;1.20;;
55031;SDS011;40928;51.076;7.950;2023-03-13T08:52:08;3.70;;;1.52;;
55031;SDS011;40928;51.076;7.950;2023-03-13T08:54:34;4.10;;;1.13;;
55031;SDS011;40928;51.076;7.950;2023-03-13T08:56:59;2.92;;;1.27;;
55031;SDS011;40928;51.076;7.950;2023-03-13T08:59:25;4.15;;;1.60;;
55031;SDS011;40928;51.076;7.950;2023-03-13T09:01:52;3.25;;;1.45;;
55031;SDS011;40928;51.076;7.950;2023-03-13T09:04:17;5.60;;;1.40;;
55031;SDS011;40928;51.076;7.950;2023-03-13T09:06:43;6.40;;;1.90;;
55031;SDS011;40928;51.076;7.950;2023-03-13T09:09:09;5.57;;;1.27;;
55031;SDS011;40928;51.076;7.950;2023-03-13T09:11:36;1.83;;;1.08;;
55031;SDS011;40928;51.076;7.950;2023-03-13T09:14:03;3.60;;;1.98;;
55031;SDS011;40928;51.076;7.950;2023-03-13T09:16:30;3.13;;;1.60;;
55031;SDS011;40928;51.076;7.950;2023-03-13T09:18:57;2.72;;;1.33;;
55031;SDS011;40928;51.076;7.950;2023-03-13T09:21:24;4.22;;;1.45;;
55031;SDS011;40928;51.076;7.950;2023-03-13T09:23:52;3.97;;;1.42;;
55031;SDS011;40928;51.076;7.950;2023-03-13T09:26:18;3.70;;;1.52;;
55031;SDS011;40928;51.076;7.950;2023-03-13T09:28:44;6.35;;;1.38;;
55031;SDS011;40928;51.076;7.950;2023-03-13T09:31:17;6.50;;;2.08;;
55031;SDS011;40928;51.076;7.950;2023-03-13T09:34:02;4.65;;;2.03;;
55031;SDS011;40928;51.076;7.950;2023-03-13T09:36:29;3.55;;;1.50;;
55031;SDS011;40928;51.076;7.950;2023-03-13T09:38:55;8.73;;;2.08;;
55031;SDS011;40928;51.076;7.950;2023-03-13T09:41:23;7.15;;;2.20;;
55031;SDS011;40928;51.076;7.950;2023-03-13T09:46:56;3.90;;;1.73;;
55031;SDS011;40928;51.076;7.950;2023-03-13T09:52:28;6.00;;;1.75;;
55031;SDS011;40928;51.076;7.950;2023-03-13T10:00:06;6.47;;;2.03;;
55031;SDS011;40928;51.076;7.950;2023-03-13T10:02:39;6.30;;;1.80;;
55031;SDS011;40928;51.076;7.950;2023-03-13T10:05:16;8.73;;;2.28;;
55031;SDS011;40928;51.076;7.950;2023-03-13T10:07:44;7.10;;;2.45;;
55031;SDS011;40928;51.076;7.950;2023-03-13T10:10:22;5.38;;;2.08;;
55031;SDS011;40928;51.076;7.950;2023-03-13T10:13:00;4.95;;;1.83;;
55031;SDS011;40928;51.076;7.950;2023-03-13T10:15:55;4.97;;;1.90;;
55031;SDS011;40928;51.076;7.950;2023-03-13T10:18:25;3.78;;;1.70;;
55031;SDS011;40928;51.076;7.950;2023-03-13T10:20:52;4.32;;;1.67;;
55031;SDS011;40928;51.076;7.950;2023-03-13T10:26:04;3.90;;;1.65;;
55031;SDS011;40928;51.076;7.950;2023-03-13T10:28:35;3.63;;;1.60;;
55031;SDS011;40928;51.076;7.950;2023-03-13T10:31:08;3.38;;;1.80;;
55031;SDS011;40928;51.076;7.950;2023-03-13T10:33:41;5.07;;;1.63;;
55031;SDS011;40928;51.076;7.950;2023-03-13T10:36:08;6.93;;;1.83;;
55031;SDS011;40928;51.076;7.950;2023-03-13T10:41:34;3.63;;;1.65;;
55031;SDS011;40928;51.076;7.950;2023-03-13T10:44:22;2.47;;;1.33;;
55031;SDS011;40928;51.076;7.950;2023-03-13T10:46:48;4.45;;;2.03;;
55031;SDS011;40928;51.076;7.950;2023-03-13T10:49:18;4.65;;;1.50;;
55031;SDS011;40928;51.076;7.950;2023-03-13T10:51:55;1.65;;;1.20;;
55031;SDS011;40928;51.076;7.950;2023-03-13T10:54:29;2.97;;;1.40;;
55031;SDS011;40928;51.076;7.950;2023-03-13T10:59:43;3.90;;;1.65;;
55031;SDS011;40928;51.076;7.950;2023-03-13T11:02:21;4.13;;;1.20;;
55031;SDS011;40928;51.076;7.950;2023-03-13T11:08:26;2.35;;;0.80;;
55031;SDS011;40928;51.076;7.950;2023-03-13T11:11:02;3.05;;;0.98;;
55031;SDS011;40928;51.076;7.950;2023-03-13T11:15:59;3.50;;;1.40;;
55031;SDS011;40928;51.076;7.950;2023-03-13T11:24:41;3.00;;;1.10;;
55031;SDS011;40928;51.076;7.950;2023-03-13T11:32:48;2.80;;;0.90;;
55031;SDS011;40928;51.076;7.950;2023-03-13T11:38:07;3.30;;;0.70;;
55031;SDS011;40928;51.076;7.950;2023-03-13T11:43:49;2.60;;;0.77;;
55031;SDS011;40928;51.076;7.950;2023-03-13T11:49:30;1.02;;;0.68;;
55031;SDS011;40928;51.076;7.950;2023-03-13T11:54:57;2.38;;;0.90;;
55031;SDS011;40928;51.076;7.950;2023-03-13T11:57:26;1.65;;;1.02;;
55031;SDS011;40928;51.076;7.950;2023-03-13T12:02:40;2.55;;;1.17;;
55031;SDS011;40928;51.076;7.950;2023-03-13T12:05:14;2.15;;;1.02;;
55031;SDS011;40928;51.076;7.950;2023-03-13T12:07:53;3.13;;;1.10;;
55031;SDS011;40928;51.076;7.950;2023-03-13T12:10:26;2.38;;;0.98;;
55031;SDS011;40928;51.076;7.950;2023-03-13T12:12:58;1.10;;;0.90;;
55031;SDS011;40928;51.076;7.950;2023-03-13T12:15:27;3.28;;;1.08;;
55031;SDS011;40928;51.076;7.950;2023-03-13T12:18:04;2.40;;;1.05;;
55031;SDS011;40928;51.076;7.950;2023-03-13T12:20:41;1.67;;;1.05;;
55031;SDS011;40928;51.076;7.950;2023-03-13T12:26:03;1.60;;;1.05;;
55031;SDS011;40928;51.076;7.950;2023-03-13T12:39:51;2.08;;;1.48;;
55031;SDS011;40928;51.076;7.950;2023-03-13T12:51:25;3.08;;;2.22;;
55031;SDS011;40928;51.076;7.950;2023-03-13T12:59:25;2.20;;;1.23;;
55031;SDS011;40928;51.076;7.950;2023-03-13T13:01:56;3.30;;;1.33;;
55031;SDS011;40928;51.076;7.950;2023-03-13T13:04:26;2.85;;;1.10;;
55031;SDS011;40928;51.076;7.950;2023-03-13T13:06:56;1.55;;;1.05;;
55031;SDS011;40928;51.076;7.950;2023-03-13T13:09:30;2.95;;;1.30;;
55031;SDS011;40928;51.076;7.950;2023-03-13T13:12:17;1.63;;;0.85;;
55031;SDS011;40928;51.076;7.950;2023-03-13T13:19:49;2.35;;;1.17;;
55031;SDS011;40928;51.076;7.950;2023-03-13T13:32:46;5.10;;;1.27;;
55031;SDS011;40928;51.076;7.950;2023-03-13T13:37:48;2.33;;;1.35;;
55031;SDS011;40928;51.076;7.950;2023-03-13T13:42:46;3.17;;;1.60;;
55031;SDS011;40928;51.076;7.950;2023-03-13T13:47:41;3.97;;;1.55;;
55031;SDS011;40928;51.076;7.950;2023-03-13T13:50:15;2.95;;;1.30;;
55031;SDS011;40928;51.076;7.950;2023-03-13T13:52:52;3.90;;;1.10;;
55031;SDS011;40928;51.076;7.950;2023-03-13T13:58:57;4.07;;;1.10;;
55031;SDS011;40928;51.076;7.950;2023-03-13T14:01:26;3.40;;;1.33;;
55031;SDS011;40928;51.076;7.950;2023-03-13T14:03:52;3.53;;;1.27;;
55031;SDS011;40928;51.076;7.950;2023-03-13T14:06:29;4.20;;;1.05;;
55031;SDS011;40928;51.076;7.950;2023-03-13T14:09:10;3.60;;;1.35;;
55031;SDS011;40928;51.076;7.950;2023-03-13T14:11:44;1.92;;;0.90;;
55031;SDS011;40928;51.076;7.950;2023-03-13T14:14:10;2.17;;;1.45;;
55031;SDS011;40928;51.076;7.950;2023-03-13T14:16:47;2.35;;;1.35;;
55031;SDS011;40928;51.076;7.950;2023-03-13T14:22:05;2.08;;;1.35;;
55031;SDS011;40928;51.076;7.950;2023-03-13T14:24:32;2.88;;;1.10;;
55031;SDS011;40928;51.076;7.950;2023-03-13T14:26:58;3.50;;;1.48;;
55031;SDS011;40928;51.076;7.950;2023-03-13T14:29:24;3.38;;;1.25;;
55031;SDS011;40928;51.076;7.950;2023-03-13T14:31:51;2.97;;;1.48;;
55031;SDS011;40928;51.076;7.950;2023-03-13T14:34:22;3.92;;;1.58;;
55031;SDS011;40928;51.076;7.950;2023-03-13T14:36:55;3.53;;;1.45;;
55031;SDS011;40928;51.076;7.950;2023-03-13T14:42:04;3.30;;;1.42;;
55031;SDS011;40928;51.076;7.950;2023-03-13T14:44:34;3.15;;;1.70;;
55031;SDS011;40928;51.076;7.950;2023-03-13T14:47:05;4.13;;;1.00;;
55031;SDS011;40928;51.076;7.950;2023-03-13T14:49:32;1.20;;;1.08;;
55031;SDS011;40928;51.076;7.950;2023-03-13T14:52:06;2.47;;;1.25;;
55031;SDS011;40928;51.076;7.950;2023-03-13T14:57:18;4.75;;;1.30;;
55031;SDS011;40928;51.076;7.950;2023-03-13T14:59:47;1.92;;;1.13;;
55031;SDS011;40928;51.076;7.950;2023-03-13T15:07:24;2.03;;;1.10;;
55031;SDS011;40928;51.076;7.950;2023-03-13T15:10:18;4.03;;;1.70;;
55031;SDS011;40928;51.076;7.950;2023-03-13T15:12:45;2.67;;;1.40;;
55031;SDS011;40928;51.076;7.950;2023-03-13T15:15:11;4.90;;;1.50;;
55031;SDS011;40928;51.076;7.950;2023-03-13T15:17:37;4.28;;;1.35;;
55031;SDS011;40928;51.076;7.950;2023-03-13T15:20:03;8.35;;;1.80;;
55031;SDS011;40928;51.076;7.950;2023-03-13T15:22:34;3.42;;;1.05;;
55031;SDS011;40928;51.076;7.950;2023-03-13T15:25:01;2.03;;;0.93;;
55031;SDS011;40928;51.076;7.950;2023-03-13T15:27:27;3.35;;;1.15;;
55031;SDS011;40928;51.076;7.950;2023-03-13T15:29:53;1.33;;;1.13;;
55031;SDS011;40928;51.076;7.950;2023-03-13T15:32:29;2.38;;;0.80;;
55031;SDS011;40928;51.076;7.950;2023-03-13T15:34:58;3.28;;;1.02;;
55031;SDS011;40928;51.076;7.950;2023-03-13T15:37:29;1.55;;;0.80;;
55031;SDS011;40928;51.076;7.950;2023-03-13T15:39:55;1.70;;;0.90;;
55031;SDS011;40928;51.076;7.950;2023-03-13T15:42:22;1.40;;;0.90;;
55031;SDS011;40928;51.076;7.950;2023-03-13T15:44:48;1.55;;;0.70;;
55031;SDS011;40928;51.076;7.950;2023-03-13T15:47:18;1.95;;;1.05;;
55031;SDS011;40928;51.076;7.950;2023-03-13T15:49:45;1.52;;;0.90;;
55031;SDS011;40928;51.076;7.950;2023-03-13T15:52:15;0.88;;;0.73;;
55031;SDS011;40928;51.076;7.950;2023-03-13T15:54:46;4.57;;;0.55;;
55031;SDS011;40928;51.076;7.950;2023-03-13T15:57:13;1.20;;;0.60;;
55031;SDS011;40928;51.076;7.950;2023-03-13T15:59:43;2.38;;;0.75;;
55031;SDS011;40928;51.076;7.950;2023-03-13T16:02:19;4.32;;;0.60;;
55031;SDS011;40928;51.076;7.950;2023-03-13T16:04:46;1.50;;;0.63;;
55031;SDS011;40928;51.076;7.950;2023-03-13T16:07:13;1.02;;;0.40;;
55031;SDS011;40928;51.076;7.950;2023-03-13T16:09:41;1.20;;;0.40;;
55031;SDS011;40928;51.076;7.950;2023-03-13T16:12:08;1.67;;;0.43;;
55031;SDS011;40928;51.076;7.950;2023-03-13T16:14:35;2.90;;;0.80;;
55031;SDS011;40928;51.076;7.950;2023-03-13T16:17:02;0.75;;;0.40;;
55031;SDS011;40928;51.076;7.950;2023-03-13T16:19:35;2.10;;;0.80;;
55031;SDS011;40928;51.076;7.950;2023-03-13T16:22:01;1.55;;;0.60;;
55031;SDS011;40928;51.076;7.950;2023-03-13T16:24:26;1.15;;;0.60;;
55031;SDS011;40928;51.076;7.950;2023-03-13T16:26:52;2.95;;;0.80;;
55031;SDS011;40928;51.076;7.950;2023-03-13T16:29:18;2.67;;;0.90;;
55031;SDS011;40928;51.076;7.950;2023-03-13T16:31:44;2.85;;;0.60;;
55031;SDS011;40928;51.076;7.950;2023-03-13T16:34:09;0.98;;;0.57;;
55031;SDS011;40928;51.076;7.950;2023-03-13T16:36:35;1.52;;;0.70;;
55031;SDS011;40928;51.076;7.950;2023-03-13T16:39:02;1.40;;;0.38;;
55031;SDS011;40928;51.076;7.950;2023-03-13T16:41:30;1.80;;;0.85;;
55031;SDS011;40928;51.076;7.950;2023-03-13T16:43:57;2.50;;;0.60;;
55031;SDS011;40928;51.076;7.950;2023-03-13T16:46:24;1.40;;;0.40;;
55031;SDS011;40928;51.076;7.950;2023-03-13T16:48:54;0.65;;;0.35;;
55031;SDS011;40928;51.076;7.950;2023-03-13T16:51:23;1.73;;;0.52;;
55031;SDS011;40928;51.076;7.950;2023-03-13T16:53:50;1.00;;;0.57;;
55031;SDS011;40928;51.076;7.950;2023-03-13T16:58:48;1.95;;;0.40;;
55031;SDS011;40928;51.076;7.950;2023-03-13T17:01:14;2.55;;;0.80;;
55031;SDS011;40928;51.076;7.950;2023-03-13T17:03:41;2.20;;;0.88;;
55031;SDS011;40928;51.076;7.950;2023-03-13T17:06:28;5.40;;;1.17;;
55031;SDS011;40928;51.076;7.950;2023-03-13T17:08:54;1.00;;;0.70;;
55031;SDS011;40928;51.076;7.950;2023-03-13T17:11:20;1.65;;;0.80;;
55031;SDS011;40928;51.076;7.950;2023-03-13T17:13:47;4.78;;;0.75;;
55031;SDS011;40928;51.076;7.950;2023-03-13T17:18:40;1.85;;;0.68;;
55031;SDS011;40928;51.076;7.950;2023-03-13T17:21:10;3.55;;;0.50;;
55031;SDS011;40928;51.076;7.950;2023-03-13T17:23:38;1.10;;;0.70;;
55031;SDS011;40928;51.076;7.950;2023-03-13T17:26:07;2.05;;;0.70;;
55031;SDS011;40928;51.076;7.950;2023-03-13T17:28:45;2.75;;;1.10;;
55031;SDS011;40928;51.076;7.950;2023-03-13T17:31:11;1.83;;;0.68;;
55031;SDS011;40928;51.076;7.950;2023-03-13T17:33:38;0.65;;;0.50;;
55031;SDS011;40928;51.076;7.950;2023-03-13T17:36:09;1.73;;;0.80;;
55031;SDS011;40928;51.076;7.950;2023-03-13T17:38:38;4.53;;;0.57;;
55031;SDS011;40928;51.076;7.950;2023-03-13T17:41:04;3.75;;;1.10;;
55031;SDS011;40928;51.076;7.950;2023-03-13T17:43:30;3.80;;;0.88;;